createdAt,value
2023-04-11T05:01:13.169Z,500.00
2023-04-11T05:02:13.231Z,500.00
2023-04-11T05:03:13.240Z,500.00
2023-04-11T05:04:13.403Z,500.00
2023-04-11T05:05:13.069Z,500.00
2023-04-11T05:06:13.032Z,500.00
2023-04-11T05:07:13.018Z,400.00
2023-04-11T05:08:13.053Z,400.00
2023-04-11T05:09:13.042Z,400.00
2023-04-11T05:10:13.064Z,400.00
2023-04-11T05:11:13.067Z,400.00
2023-04-11T05:12:13.027Z,400.00
2023-04-11T05:13:12.996Z,400.00
2023-04-11T05:14:12.970Z,400.00
2023-04-11T05:15:12.983Z,400.00
2023-04-11T05:16:13.012Z,400.00
2023-04-11T05:17:12.951Z,400.00
2023-04-11T05:18:12.970Z,400.00
2023-04-11T05:19:12.917Z,400.00
2023-04-11T05:20:13.014Z,400.00
2023-04-11T05:21:12.982Z,400.00
2023-04-11T05:22:13.010Z,400.00
2023-04-11T05:23:13.025Z,400.00
2023-04-11T05:24:13.143Z,400.00
2023-04-11T05:25:13.107Z,400.00
2023-04-11T05:26:13.200Z,400.00
2023-04-11T05:27:13.240Z,400.00
2023-04-11T05:28:13.327Z,400.00
2023-04-11T05:29:13.421Z,400.00
2023-04-11T05:30:13.419Z,400.00
2023-04-11T05:31:13.532Z,400.00
2023-04-11T05:32:13.503Z,413.00
2023-04-11T05:33:13.612Z,460.00
2023-04-11T05:34:13.590Z,499.00
2023-04-11T05:35:13.709Z,500.00
2023-04-11T05:36:13.795Z,501.00
2023-04-11T05:37:13.804Z,500.00
2023-04-11T05:38:13.841Z,500.00
2023-04-11T05:39:13.847Z,481.00
2023-04-11T05:40:13.777Z,468.00
2023-04-11T05:41:14.729Z,453.00
2023-04-11T05:42:13.795Z,440.00
2023-04-11T05:43:13.799Z,484.00
2023-04-11T05:44:13.868Z,500.00
2023-04-11T05:45:13.706Z,499.00
2023-04-11T05:46:13.873Z,500.00
2023-04-11T05:47:13.906Z,501.00
2023-04-11T05:48:15.870Z,501.00
2023-04-11T05:49:14.058Z,501.00
2023-04-11T05:50:14.131Z,500.00
2023-04-11T05:51:14.124Z,501.00
2023-04-11T05:52:14.119Z,500.00
2023-04-11T05:53:15.378Z,500.00
2023-04-11T05:54:15.368Z,498.00
2023-04-11T05:55:14.293Z,499.00
2023-04-11T05:56:15.180Z,500.00
2023-04-11T05:57:14.325Z,500.00
2023-04-11T05:58:14.347Z,500.00
2023-04-11T05:59:14.845Z,506.00
2023-04-11T06:00:14.563Z,501.00
2023-04-11T06:01:14.520Z,503.00
2023-04-11T06:02:15.569Z,517.00
2023-04-11T06:03:14.681Z,496.00
2023-04-11T06:04:14.656Z,505.00
2023-04-11T06:05:14.657Z,519.00
2023-04-11T06:06:14.573Z,518.00
2023-04-11T06:07:14.638Z,514.00
2023-04-11T06:08:15.130Z,514.00
2023-04-11T06:09:21.231Z,511.00
2023-04-11T06:10:14.655Z,514.00
2023-04-11T06:11:16.095Z,515.00
2023-04-11T06:12:14.652Z,521.00
2023-04-11T06:13:14.558Z,524.00
2023-04-11T06:14:14.600Z,526.00
2023-04-11T06:15:14.670Z,524.00
2023-04-11T06:16:14.642Z,531.00
2023-04-11T06:17:14.518Z,533.00
2023-04-11T06:18:14.554Z,537.00
2023-04-11T06:19:14.569Z,536.00
2023-04-11T06:20:14.700Z,543.00
2023-04-11T06:21:14.710Z,543.00
2023-04-11T06:22:14.636Z,537.00
2023-04-11T06:23:14.639Z,546.00
2023-04-11T06:24:14.663Z,554.00
2023-04-11T06:25:14.694Z,552.00
2023-04-11T06:26:14.754Z,551.00
2023-04-11T06:27:14.660Z,554.00
2023-04-11T06:28:14.678Z,559.00
2023-04-11T06:29:14.668Z,557.00
2023-04-11T06:30:14.807Z,558.00
2023-04-11T06:31:14.802Z,562.00
2023-04-11T06:32:14.996Z,564.00
2023-04-11T06:33:14.933Z,571.00
2023-04-11T06:34:14.900Z,571.00
2023-04-11T06:35:15.787Z,560.00
2023-04-11T06:36:22.504Z,554.00
2023-04-11T06:37:14.967Z,554.00
2023-04-11T06:38:14.936Z,555.00
2023-04-11T06:39:14.920Z,557.00
2023-04-11T06:40:14.927Z,563.00
2023-04-11T06:41:14.910Z,568.00
2023-04-11T06:42:14.922Z,571.00
2023-04-11T06:43:15.005Z,588.00
2023-04-11T06:44:14.921Z,592.00
2023-04-11T06:45:14.881Z,599.00
2023-04-11T06:46:14.948Z,603.00
2023-04-11T06:47:14.889Z,599.00
2023-04-11T06:48:14.832Z,598.00
2023-04-11T06:49:14.863Z,597.00
2023-04-11T06:50:14.831Z,598.00
2023-04-11T06:51:14.858Z,601.00
2023-04-11T06:52:14.855Z,602.00
2023-04-11T06:53:14.835Z,600.00
2023-04-11T06:54:14.849Z,597.00
2023-04-11T06:55:14.867Z,599.00
2023-04-11T06:56:14.908Z,597.00
2023-04-11T06:57:15.049Z,598.00
2023-04-11T06:58:15.046Z,600.00
2023-04-11T06:59:15.083Z,600.00
2023-04-11T07:00:15.089Z,601.00
2023-04-11T07:01:15.267Z,603.00
2023-04-11T07:02:15.241Z,601.00
2023-04-11T07:03:15.270Z,604.00
2023-04-11T07:04:15.269Z,603.00
2023-04-11T07:05:15.258Z,606.00
2023-04-11T07:06:15.297Z,604.00
2023-04-11T07:07:15.324Z,607.00
2023-04-11T07:08:15.405Z,602.00
2023-04-11T07:09:15.364Z,608.00
2023-04-11T07:10:15.435Z,606.00
2023-04-11T07:11:15.436Z,609.00
2023-04-11T07:12:15.465Z,612.00
2023-04-11T07:13:15.504Z,611.00
2023-04-11T07:14:15.529Z,609.00
2023-04-11T07:15:15.623Z,615.00
2023-04-11T07:16:15.668Z,612.00
2023-04-11T07:17:15.664Z,610.00
2023-04-11T07:18:15.969Z,615.00
2023-04-11T07:19:17.359Z,605.00
2023-04-11T07:20:15.719Z,573.00
2023-04-11T07:21:15.867Z,592.00
2023-04-11T07:22:27.433Z,586.00
2023-04-11T07:23:15.826Z,587.00
2023-04-11T07:24:15.831Z,588.00
2023-04-11T07:25:15.806Z,588.00
2023-04-11T07:26:15.829Z,586.00
2023-04-11T07:27:15.788Z,578.00
2023-04-11T07:28:15.797Z,576.00
2023-04-11T07:29:15.770Z,572.00
2023-04-11T07:30:15.743Z,573.00
2023-04-11T07:31:15.790Z,576.00
2023-04-11T07:32:15.765Z,581.00
2023-04-11T07:33:15.772Z,583.00
2023-04-11T07:34:15.719Z,574.00
2023-04-11T07:35:15.757Z,576.00
2023-04-11T07:36:15.729Z,569.00
2023-04-11T07:37:15.719Z,570.00
2023-04-11T07:38:15.722Z,575.00
2023-04-11T07:39:15.682Z,568.00
2023-04-11T07:40:15.683Z,577.00
2023-04-11T07:41:15.669Z,586.00
2023-04-11T07:42:15.686Z,577.00
2023-04-11T07:43:16.139Z,580.00
2023-04-11T07:44:15.647Z,504.00
2023-04-11T07:45:15.654Z,502.00
2023-04-11T07:46:15.733Z,524.00
2023-04-11T07:47:15.667Z,522.00
2023-04-11T07:48:15.728Z,528.00
2023-04-11T07:49:15.670Z,506.00
2023-04-11T07:50:15.641Z,503.00
2023-04-11T07:51:15.603Z,542.00
2023-04-11T07:52:15.614Z,514.00
2023-04-11T07:53:15.610Z,513.00
2023-04-11T07:54:15.590Z,537.00
2023-04-11T07:55:15.653Z,605.00
2023-04-11T07:56:15.600Z,670.00
2023-04-11T07:57:15.558Z,966.00
2023-04-11T07:58:15.605Z,1162.00
2023-04-11T07:59:15.536Z,1261.00
2023-04-11T08:00:15.553Z,1334.00
2023-04-11T08:01:15.517Z,1331.00
2023-04-11T08:02:15.677Z,1330.00
2023-04-11T08:03:15.694Z,1317.00
2023-04-11T08:04:15.635Z,1314.00
2023-04-11T08:05:15.569Z,1322.00
2023-04-11T08:06:15.547Z,1332.00
2023-04-11T08:07:15.526Z,1350.00
2023-04-11T08:08:15.513Z,1348.00
2023-04-11T08:09:15.500Z,1356.00
2023-04-11T08:10:15.462Z,1377.00
2023-04-11T08:11:15.472Z,1395.00
2023-04-11T08:12:15.482Z,1406.00
2023-04-11T08:13:15.463Z,1403.00
2023-04-11T08:14:15.474Z,1396.00
2023-04-11T08:15:15.468Z,1391.00
2023-04-11T08:16:15.632Z,1392.00
2023-04-11T08:17:27.182Z,1376.00
2023-04-11T08:18:16.607Z,1376.00
2023-04-11T08:19:15.409Z,1324.00
2023-04-11T08:20:15.422Z,1299.00
2023-04-11T08:21:15.386Z,1294.00
2023-04-11T08:22:15.394Z,1304.00
2023-04-11T08:23:15.379Z,1296.00
2023-04-11T08:24:15.438Z,1303.00
2023-04-11T08:25:15.390Z,1304.00
2023-04-11T08:26:15.416Z,1302.00
2023-04-11T08:27:15.456Z,1291.00
2023-04-11T08:28:15.453Z,1270.00
2023-04-11T08:29:15.531Z,1270.00
2023-04-11T08:30:15.530Z,1227.00
2023-04-11T08:31:15.769Z,1203.00
2023-04-11T08:32:15.690Z,1184.00
2023-04-11T08:33:15.753Z,1163.00
2023-04-11T08:34:15.774Z,1160.00
2023-04-11T08:35:15.823Z,1148.00
2023-04-11T08:36:15.915Z,1132.00
2023-04-11T08:37:15.913Z,1133.00
2023-04-11T08:38:15.959Z,1145.00
2023-04-11T08:39:16.031Z,1129.00
2023-04-11T08:40:16.103Z,1122.00
2023-04-11T08:41:16.113Z,1124.00
2023-04-11T08:42:16.153Z,1126.00
2023-04-11T08:43:16.197Z,1139.00
2023-04-11T08:44:16.228Z,1134.00
2023-04-11T08:45:16.255Z,1143.00
2023-04-11T08:46:16.344Z,1151.00
2023-04-11T08:47:16.347Z,1153.00
2023-04-11T08:48:16.383Z,1130.00
2023-04-11T08:49:16.485Z,1143.00
2023-04-11T08:50:16.692Z,1119.00
2023-04-11T08:51:16.476Z,1144.00
2023-04-11T08:52:16.518Z,1128.00
2023-04-11T08:53:16.577Z,1109.00
2023-04-11T08:54:16.563Z,1109.00
2023-04-11T08:55:16.597Z,1097.00
2023-04-11T08:56:16.608Z,1088.00
2023-04-11T08:57:16.668Z,1095.00
2023-04-11T08:58:16.739Z,1106.00
2023-04-11T08:59:16.750Z,1075.00
2023-04-11T09:00:16.819Z,1085.00
2023-04-11T09:01:16.812Z,1076.00
2023-04-11T09:02:16.877Z,1071.00
2023-04-11T09:03:16.940Z,1090.00
2023-04-11T09:04:16.965Z,1044.00
2023-04-11T09:05:16.960Z,1079.00
2023-04-11T09:06:16.937Z,1068.00
2023-04-11T09:07:16.981Z,1053.00
2023-04-11T09:08:16.980Z,1038.00
2023-04-11T09:09:17.016Z,1062.00
2023-04-11T09:10:17.071Z,1046.00
2023-04-11T09:11:17.078Z,1053.00
2023-04-11T09:12:17.135Z,1060.00
2023-04-11T09:13:17.161Z,1064.00
2023-04-11T09:14:17.191Z,1060.00
2023-04-11T09:15:17.228Z,1042.00
2023-04-11T09:16:17.257Z,1052.00
2023-04-11T09:17:17.281Z,1053.00
2023-04-11T09:18:17.251Z,1052.00
2023-04-11T09:19:17.301Z,1038.00
2023-04-11T09:20:17.271Z,1050.00
2023-04-11T09:21:17.311Z,1028.00
2023-04-11T09:22:17.327Z,1055.00
2023-04-11T09:23:17.404Z,1050.00
2023-04-11T09:24:17.422Z,1061.00
2023-04-11T09:25:17.453Z,1033.00
2023-04-11T09:26:17.458Z,1025.00
2023-04-11T09:27:17.471Z,1005.00
2023-04-11T09:28:17.462Z,997.00
2023-04-11T09:29:17.532Z,974.00
2023-04-11T09:30:17.537Z,995.00
2023-04-11T09:31:17.594Z,999.00
2023-04-11T09:32:17.579Z,991.00
2023-04-11T09:33:17.619Z,992.00
2023-04-11T09:34:17.636Z,976.00
2023-04-11T09:35:17.627Z,995.00
2023-04-11T09:36:17.651Z,963.00
2023-04-11T09:37:17.669Z,952.00
2023-04-11T09:38:17.681Z,980.00
2023-04-11T09:39:17.794Z,991.00
2023-04-11T09:40:17.787Z,969.00
2023-04-11T09:41:17.765Z,988.00
2023-04-11T09:42:17.900Z,991.00
2023-04-11T09:43:19.893Z,996.00
2023-04-11T09:44:17.891Z,984.00
2023-04-11T09:45:17.919Z,986.00
2023-04-11T09:46:17.937Z,993.00
2023-04-11T09:47:17.965Z,974.00
2023-04-11T09:48:17.970Z,969.00
2023-04-11T09:49:17.933Z,971.00
2023-04-11T09:50:17.971Z,941.00
2023-04-11T09:51:34.234Z,933.00
2023-04-11T09:52:18.976Z,934.00
2023-04-11T09:53:17.983Z,938.00
2023-04-11T09:54:17.989Z,937.00
2023-04-11T09:55:17.952Z,954.00
2023-04-11T09:56:17.927Z,956.00
2023-04-11T09:57:17.946Z,935.00
2023-04-11T09:58:17.889Z,907.00
2023-04-11T09:59:17.928Z,864.00
2023-04-11T10:00:17.940Z,890.00
2023-04-11T10:01:17.961Z,891.00
2023-04-11T10:02:17.963Z,889.00
2023-04-11T10:03:17.920Z,888.00
2023-04-11T10:04:17.906Z,861.00
2023-04-11T10:05:17.888Z,875.00
2023-04-11T10:06:17.872Z,895.00
2023-04-11T10:07:17.865Z,889.00
2023-04-11T10:08:17.873Z,794.00
2023-04-11T10:09:17.847Z,791.00
2023-04-11T10:10:17.886Z,666.00
2023-04-11T10:11:17.826Z,632.00
2023-04-11T10:12:17.812Z,528.00
2023-04-11T10:13:17.804Z,506.00
2023-04-11T10:14:17.847Z,526.00
2023-04-11T10:15:17.903Z,571.00
2023-04-11T10:16:17.833Z,714.00
2023-04-11T10:17:21.360Z,787.00
2023-04-11T10:18:17.834Z,789.00
2023-04-11T10:19:17.793Z,797.00
2023-04-11T10:20:17.791Z,812.00
2023-04-11T10:21:17.780Z,828.00
2023-04-11T10:22:17.798Z,856.00
2023-04-11T10:23:17.803Z,852.00
2023-04-11T10:24:18.130Z,855.00
2023-04-11T10:25:17.885Z,867.00
2023-04-11T10:26:17.783Z,879.00
2023-04-11T10:27:17.773Z,866.00
2023-04-11T10:28:17.737Z,860.00
2023-04-11T10:29:17.763Z,850.00
2023-04-11T10:30:17.799Z,840.00
2023-04-11T10:31:17.816Z,832.00
2023-04-11T10:32:17.709Z,839.00
2023-04-11T10:33:17.825Z,840.00
2023-04-11T10:34:17.735Z,836.00
2023-04-11T10:35:17.713Z,831.00
2023-04-11T10:36:17.785Z,825.00
2023-04-11T10:37:17.735Z,813.00
2023-04-11T10:38:17.774Z,846.00
2023-04-11T10:39:17.813Z,830.00
2023-04-11T10:40:17.865Z,816.00
2023-04-11T10:41:17.944Z,815.00
2023-04-11T10:42:17.848Z,809.00
2023-04-11T10:43:17.877Z,793.00
2023-04-11T10:44:17.944Z,783.00
2023-04-11T10:45:17.929Z,816.00
2023-04-11T10:46:18.056Z,801.00
2023-04-11T10:47:18.058Z,836.00
2023-04-11T10:48:18.005Z,825.00
2023-04-11T10:49:18.035Z,841.00
2023-04-11T10:50:18.040Z,839.00
2023-04-11T10:51:18.071Z,839.00
2023-04-11T10:52:18.071Z,848.00
2023-04-11T10:53:18.137Z,818.00
2023-04-11T10:54:18.081Z,812.00
2023-04-11T10:55:18.106Z,816.00
2023-04-11T10:56:18.195Z,808.00
2023-04-11T10:57:18.156Z,820.00
2023-04-11T10:58:18.226Z,836.00
2023-04-11T10:59:18.242Z,817.00
2023-04-11T11:00:18.355Z,816.00
2023-04-11T11:01:31.482Z,809.00
2023-04-11T11:02:19.472Z,810.00
2023-04-11T11:03:18.471Z,813.00
2023-04-11T11:04:18.670Z,819.00
2023-04-11T11:05:18.287Z,819.00
2023-04-11T11:06:18.247Z,834.00
2023-04-11T11:07:18.276Z,825.00
2023-04-11T11:08:18.287Z,829.00
2023-04-11T11:09:18.236Z,825.00
2023-04-11T11:10:18.263Z,806.00
2023-04-11T11:11:18.267Z,829.00
2023-04-11T11:12:18.204Z,821.00
2023-04-11T11:13:18.278Z,821.00
2023-04-11T11:14:18.176Z,819.00
2023-04-11T11:15:18.148Z,807.00
2023-04-11T11:16:18.241Z,752.00
2023-04-11T11:17:18.168Z,768.00
2023-04-11T11:18:18.213Z,788.00
2023-04-11T11:19:18.188Z,717.00
2023-04-11T11:20:18.306Z,647.00
2023-04-11T11:21:26.816Z,702.00
2023-04-11T11:22:19.240Z,703.00
2023-04-11T11:23:18.197Z,709.00
2023-04-11T11:24:18.268Z,724.00
2023-04-11T11:25:18.199Z,756.00
2023-04-11T11:26:19.192Z,706.00
2023-04-11T11:27:18.230Z,716.00
2023-04-11T11:28:18.150Z,736.00
2023-04-11T11:29:18.177Z,769.00
2023-04-11T11:30:18.137Z,794.00
2023-04-11T11:31:18.262Z,803.00
2023-04-11T11:32:18.166Z,799.00
2023-04-11T11:33:18.145Z,802.00
2023-04-11T11:35:18.124Z,807.00
2023-04-11T11:36:18.096Z,804.00
2023-04-11T11:37:18.111Z,801.00
2023-04-11T11:38:18.082Z,809.00
2023-04-11T11:39:18.707Z,815.00
2023-04-11T11:40:18.080Z,804.00
2023-04-11T11:41:18.042Z,805.00
2023-04-11T11:42:18.154Z,788.00
2023-04-11T11:43:18.063Z,765.00
2023-04-11T11:44:18.040Z,789.00
2023-04-11T11:45:18.086Z,786.00
2023-04-11T11:46:18.125Z,787.00
2023-04-11T11:47:18.143Z,778.00
2023-04-11T11:48:18.050Z,757.00
2023-04-11T11:49:18.042Z,768.00
2023-04-11T11:50:18.029Z,741.00
2023-04-11T11:51:18.030Z,745.00
2023-04-11T11:52:18.042Z,747.00
2023-04-11T11:53:17.977Z,745.00
2023-04-11T11:54:17.973Z,758.00
2023-04-11T11:55:18.029Z,751.00
2023-04-11T11:56:17.979Z,739.00
2023-04-11T11:57:17.942Z,728.00
2023-04-11T11:58:17.970Z,715.00
2023-04-11T11:59:17.956Z,687.00
2023-04-11T12:00:17.952Z,696.00
2023-04-11T12:01:17.992Z,682.00
2023-04-11T12:02:18.073Z,672.00
2023-04-11T12:03:18.028Z,670.00
2023-04-11T12:04:18.012Z,666.00
2023-04-11T12:05:17.952Z,678.00
2023-04-11T12:06:17.911Z,687.00
2023-04-11T12:07:17.899Z,675.00
2023-04-11T12:08:17.880Z,625.00
2023-04-11T12:09:17.945Z,604.00
2023-04-11T12:10:17.899Z,541.00
2023-04-11T12:11:17.973Z,498.00
2023-04-11T12:12:17.875Z,500.00
2023-04-11T12:13:17.858Z,491.00
2023-04-11T12:14:17.850Z,497.00
2023-04-11T12:15:17.862Z,503.00
2023-04-11T12:16:17.910Z,505.00
2023-04-11T12:17:17.864Z,507.00
2023-04-11T12:18:17.856Z,502.00
2023-04-11T12:19:17.829Z,500.00
2023-04-11T12:20:17.850Z,500.00
2023-04-11T12:21:17.851Z,504.00
2023-04-11T12:22:17.814Z,503.00
2023-04-11T12:23:17.814Z,507.00
2023-04-11T12:24:17.798Z,503.00
2023-04-11T12:25:17.787Z,500.00
2023-04-11T12:26:17.830Z,498.00
2023-04-11T12:27:17.800Z,506.00
2023-04-11T12:28:17.822Z,499.00
2023-04-11T12:29:17.779Z,500.00
2023-04-11T12:30:17.829Z,496.00
2023-04-11T12:31:17.795Z,500.00
2023-04-11T12:32:17.735Z,504.00
2023-04-11T12:33:17.776Z,500.00
2023-04-11T12:34:17.747Z,501.00
2023-04-11T12:35:17.729Z,503.00
2023-04-11T12:36:17.743Z,506.00
2023-04-11T12:37:17.701Z,498.00
2023-04-11T12:38:18.153Z,505.00
2023-04-11T12:39:17.741Z,510.00
2023-04-11T12:40:17.764Z,504.00
2023-04-11T12:41:30.920Z,517.00
2023-04-11T12:42:20.991Z,517.00
2023-04-11T12:43:18.768Z,517.00
2023-04-11T12:44:17.755Z,519.00
2023-04-11T12:45:17.753Z,519.00
2023-04-11T12:46:17.759Z,521.00
2023-04-11T12:47:17.733Z,529.00
2023-04-11T12:48:17.739Z,530.00
2023-04-11T12:49:17.746Z,532.00
2023-04-11T12:50:17.692Z,525.00
2023-04-11T12:51:17.682Z,513.00
2023-04-11T12:52:17.754Z,521.00
2023-04-11T12:53:17.701Z,515.00
2023-04-11T12:54:17.733Z,520.00
2023-04-11T12:55:17.708Z,507.00
2023-04-11T12:56:17.700Z,511.00
2023-04-11T12:57:17.668Z,506.00
2023-04-11T12:58:17.646Z,502.00
2023-04-11T12:59:17.656Z,504.00
2023-04-11T13:00:17.623Z,500.00
2023-04-11T13:01:17.672Z,513.00
2023-04-11T13:02:17.717Z,514.00
2023-04-11T13:03:17.811Z,500.00
2023-04-11T13:04:17.672Z,513.00
2023-04-11T13:05:17.642Z,510.00
2023-04-11T13:06:17.612Z,509.00
2023-04-11T13:07:17.631Z,511.00
2023-04-11T13:08:17.557Z,511.00
2023-04-11T13:09:17.596Z,514.00
2023-04-11T13:10:17.565Z,521.00
2023-04-11T13:11:17.560Z,519.00
2023-04-11T13:12:17.560Z,520.00
2023-04-11T13:13:18.852Z,518.00
2023-04-11T13:14:17.536Z,521.00
2023-04-11T13:15:17.570Z,517.00
2023-04-11T13:16:17.553Z,522.00
2023-04-11T13:17:17.496Z,528.00
2023-04-11T13:18:17.532Z,517.00
2023-04-11T13:19:17.526Z,516.00
2023-04-11T13:20:17.472Z,529.00
2023-04-11T13:21:17.490Z,525.00
2023-04-11T13:22:17.490Z,525.00
2023-04-11T13:23:17.647Z,521.00
2023-04-11T13:24:17.495Z,512.00
2023-04-11T13:25:17.490Z,511.00
2023-04-11T13:26:17.507Z,517.00
2023-04-11T13:27:17.465Z,502.00
2023-04-11T13:28:17.494Z,509.00
2023-04-11T13:29:17.437Z,502.00
2023-04-11T13:30:17.445Z,509.00
2023-04-11T13:31:17.543Z,502.00
2023-04-11T13:32:17.558Z,503.00
2023-04-11T13:33:17.548Z,500.00
2023-04-11T13:34:17.535Z,506.00
2023-04-11T13:35:17.573Z,505.00
2023-04-11T13:36:17.600Z,509.00
2023-04-11T13:37:17.601Z,506.00
2023-04-11T13:38:17.693Z,511.00
2023-04-11T13:39:17.677Z,504.00
2023-04-11T13:40:17.709Z,507.00
2023-04-11T13:41:17.710Z,512.00
2023-04-11T13:42:17.759Z,512.00
2023-04-11T13:43:17.835Z,518.00
2023-04-11T13:44:17.835Z,515.00
2023-04-11T13:45:17.892Z,512.00
2023-04-11T13:46:17.980Z,530.00
2023-04-11T13:47:17.970Z,535.00
2023-04-11T13:48:17.967Z,527.00
2023-04-11T13:49:18.002Z,556.00
2023-04-11T13:50:18.117Z,548.00
2023-04-11T13:51:18.089Z,546.00
2023-04-11T13:52:18.120Z,543.00
2023-04-11T13:53:18.152Z,529.00
2023-04-11T13:54:18.250Z,524.00
2023-04-11T13:55:18.180Z,534.00
2023-04-11T13:56:18.262Z,540.00
2023-04-11T13:57:18.257Z,541.00
2023-04-11T13:58:18.270Z,542.00
2023-04-11T13:59:18.347Z,545.00
2023-04-11T14:00:18.341Z,549.00
2023-04-11T14:01:18.399Z,560.00
2023-04-11T14:02:18.465Z,582.00
2023-04-11T14:03:18.494Z,622.00
2023-04-11T14:04:18.554Z,648.00
2023-04-11T14:05:18.477Z,642.00
2023-04-11T14:06:18.510Z,649.00
2023-04-11T14:07:18.537Z,658.00
2023-04-11T14:08:18.547Z,714.00
2023-04-11T14:09:18.625Z,726.00
2023-04-11T14:10:18.612Z,755.00
2023-04-11T14:11:18.662Z,794.00
2023-04-11T14:12:18.743Z,829.00
2023-04-11T14:13:18.661Z,815.00
2023-04-11T14:14:18.718Z,853.00
2023-04-11T14:15:19.975Z,1000.00
2023-04-11T14:16:18.801Z,1089.00
2023-04-11T14:17:18.733Z,1180.00
2023-04-11T14:18:18.739Z,1332.00
2023-04-11T14:19:18.735Z,1449.00
2023-04-11T14:20:18.833Z,1738.00
2023-04-11T14:21:18.803Z,1840.00
2023-04-11T14:22:18.832Z,2138.00
2023-04-11T14:23:18.819Z,2415.00
2023-04-11T14:24:18.936Z,2546.00
2023-04-11T14:25:18.850Z,2296.00
2023-04-11T14:26:18.881Z,2201.00
2023-04-11T14:27:18.883Z,2156.00
2023-04-11T14:28:18.906Z,2141.00
2023-04-11T14:29:20.934Z,2201.00
2023-04-11T14:30:18.899Z,2089.00
2023-04-11T14:31:18.970Z,2076.00
2023-04-11T14:32:18.896Z,2081.00
2023-04-11T14:33:18.867Z,2055.00
2023-04-11T14:34:18.881Z,2000.00
2023-04-11T14:35:18.883Z,1990.00
2023-04-11T14:36:18.859Z,1999.00
2023-04-11T14:37:18.849Z,1998.00
2023-04-11T14:38:18.809Z,1981.00
2023-04-11T14:39:18.850Z,1983.00
2023-04-11T14:40:18.842Z,1981.00
2023-04-11T14:41:18.805Z,1993.00
2023-04-11T14:42:18.821Z,1979.00
2023-04-11T14:43:18.772Z,1988.00
2023-04-11T14:44:18.796Z,1970.00
2023-04-11T14:45:18.817Z,1956.00
2023-04-11T14:46:18.807Z,1971.00
2023-04-11T14:47:18.775Z,1953.00
2023-04-11T14:48:18.734Z,1961.00
2023-04-11T14:49:18.728Z,1956.00
2023-04-11T14:50:18.758Z,1948.00
2023-04-11T14:51:18.760Z,1933.00
2023-04-11T14:52:18.712Z,1941.00
2023-04-11T14:53:18.717Z,1936.00
2023-04-11T14:54:18.716Z,1927.00
2023-04-11T14:55:18.684Z,1920.00
2023-04-11T14:56:18.728Z,1930.00
2023-04-11T14:57:18.708Z,1912.00
2023-04-11T14:58:18.670Z,1928.00
2023-04-11T14:59:18.672Z,1916.00
2023-04-11T15:00:18.666Z,1922.00
2023-04-11T15:01:18.676Z,1906.00
2023-04-11T15:02:18.823Z,1904.00
2023-04-11T15:03:18.834Z,1917.00
2023-04-11T15:04:18.816Z,1901.00
2023-04-11T15:05:18.632Z,1918.00
2023-04-11T15:06:18.681Z,1900.00
2023-04-11T15:07:18.637Z,1900.00
2023-04-11T15:08:18.660Z,1893.00
2023-04-11T15:09:18.623Z,1903.00
2023-04-11T15:10:18.631Z,1892.00
2023-04-11T15:11:18.573Z,1899.00
2023-04-11T15:12:18.582Z,1888.00
2023-04-11T15:13:18.580Z,1890.00
2023-04-11T15:14:18.649Z,1895.00
2023-04-11T15:15:18.556Z,1878.00
2023-04-11T15:16:19.463Z,1883.00
2023-04-11T15:17:18.567Z,1890.00
2023-04-11T15:18:18.702Z,1887.00
2023-04-11T15:19:18.560Z,1865.00
2023-04-11T15:20:18.524Z,1873.00
2023-04-11T15:21:18.526Z,1868.00
2023-04-11T15:22:18.543Z,1862.00
2023-04-11T15:23:18.555Z,1866.00
2023-04-11T15:24:18.538Z,1873.00
2023-04-11T15:25:18.648Z,1862.00
2023-04-11T15:26:18.726Z,1856.00
2023-04-11T15:27:18.804Z,1848.00
2023-04-11T15:28:18.944Z,1845.00
2023-04-11T15:29:19.010Z,1848.00
2023-04-11T15:30:19.111Z,1832.00
2023-04-11T15:31:19.297Z,1835.00
2023-04-11T15:32:19.205Z,1816.00
2023-04-11T15:33:19.207Z,1837.00
2023-04-11T15:34:19.219Z,1813.00
2023-04-11T15:35:19.208Z,1819.00
2023-04-11T15:36:19.222Z,1814.00
2023-04-11T15:37:19.283Z,1814.00
2023-04-11T15:38:19.314Z,1813.00
2023-04-11T15:39:19.312Z,1820.00
2023-04-11T15:40:19.310Z,1809.00
2023-04-11T15:41:19.295Z,1795.00
2023-04-11T15:42:19.320Z,1797.00
2023-04-11T15:43:19.407Z,1806.00
2023-04-11T15:44:19.526Z,1798.00
2023-04-11T15:45:19.597Z,1796.00
2023-04-11T15:46:19.613Z,1791.00
2023-04-11T15:47:19.593Z,1783.00
2023-04-11T15:48:19.600Z,1788.00
2023-04-11T15:49:19.607Z,1791.00
2023-04-11T15:50:19.599Z,1801.00
2023-04-11T15:51:19.702Z,1780.00
2023-04-11T15:52:19.717Z,1779.00
2023-04-11T15:53:19.754Z,1776.00
2023-04-11T15:54:19.703Z,1773.00
2023-04-11T15:55:19.731Z,1763.00
2023-04-11T15:56:20.151Z,1772.00
2023-04-11T15:57:19.832Z,1743.00
2023-04-11T15:58:19.924Z,1767.00
2023-04-11T15:59:20.041Z,1758.00
2023-04-11T16:00:20.023Z,1753.00
2023-04-11T16:01:20.068Z,1742.00
2023-04-11T16:02:20.102Z,1745.00
2023-04-11T16:03:20.326Z,1739.00
2023-04-11T16:04:20.232Z,1737.00
2023-04-11T16:05:20.178Z,1740.00
2023-04-11T16:06:20.052Z,1736.00
2023-04-11T16:07:20.170Z,1728.00
2023-04-11T16:08:20.190Z,1742.00
2023-04-11T16:09:20.183Z,1739.00
2023-04-11T16:10:20.151Z,1720.00
2023-04-11T16:11:20.167Z,1711.00
2023-04-11T16:12:20.171Z,1719.00
2023-04-11T16:13:20.256Z,1706.00
2023-04-11T16:14:20.239Z,1705.00
2023-04-11T16:15:20.276Z,1700.00
2023-04-11T16:16:20.307Z,1709.00
2023-04-11T16:17:20.254Z,1708.00
2023-04-11T16:18:20.271Z,1707.00
2023-04-11T16:19:20.334Z,1713.00
2023-04-11T16:20:21.176Z,1705.00
2023-04-11T16:21:20.465Z,1688.00
2023-04-11T16:22:20.425Z,1701.00
2023-04-11T16:23:20.469Z,1675.00
2023-04-11T16:24:20.528Z,1687.00
2023-04-11T16:25:20.548Z,1686.00
2023-04-11T16:26:20.643Z,1677.00
2023-04-11T16:27:20.612Z,1681.00
2023-04-11T16:28:20.667Z,1686.00
2023-04-11T16:29:20.614Z,1688.00
2023-04-11T16:30:20.684Z,1677.00
2023-04-11T16:31:20.689Z,1669.00
2023-04-11T16:32:20.728Z,1666.00
2023-04-11T16:33:20.854Z,1662.00
2023-04-11T16:34:20.837Z,1669.00
2023-04-11T16:35:20.825Z,1660.00
2023-04-11T16:36:20.833Z,1663.00
2023-04-11T16:37:20.855Z,1669.00
2023-04-11T16:38:20.844Z,1669.00
2023-04-11T16:39:20.873Z,1649.00
2023-04-11T16:40:20.885Z,1649.00
2023-04-11T16:41:21.032Z,1648.00
2023-04-11T16:42:21.000Z,1625.00
2023-04-11T16:43:21.116Z,1649.00
2023-04-11T16:44:21.096Z,1635.00
2023-04-11T16:45:21.010Z,1639.00
2023-04-11T16:46:21.070Z,1625.00
2023-04-11T16:47:21.112Z,1623.00
2023-04-11T16:48:21.214Z,1627.00
2023-04-11T16:49:21.246Z,1625.00
2023-04-11T16:50:21.198Z,1622.00
2023-04-11T16:51:21.179Z,1614.00
2023-04-11T16:52:21.185Z,1613.00
2023-04-11T16:53:21.243Z,1628.00
2023-04-11T16:54:21.353Z,1607.00
2023-04-11T16:55:21.416Z,1609.00
2023-04-11T16:56:21.369Z,1611.00
2023-04-11T16:57:21.382Z,1600.00
2023-04-11T16:58:21.371Z,1619.00
2023-04-11T16:59:21.393Z,1621.00
2023-04-11T17:00:21.512Z,1605.00
